sensor_id;sensor_type;location;lat;lon;timestamp;temperature;humidity
32749;DHT22;19119;52.474;13.710;2023-08-01T00:01:28;18.40;99.90
32749;DHT22;19119;52.474;13.710;2023-08-01T00:03:54;18.40;99.90
32749;DHT22;19119;52.474;13.710;2023-08-01T00:06:19;18.30;99.90
32749;DHT22;19119;52.474;13.710;2023-08-01T00:08:46;18.30;99.90
32749;DHT22;19119;52.474;13.710;2023-08-01T00:11:12;18.20;99.90
32749;DHT22;19119;52.474;13.710;2023-08-01T00:13:39;18.20;99.90
32749;DHT22;19119;52.474;13.710;2023-08-01T00:16:05;18.20;99.90
32749;DHT22;19119;52.474;13.710;2023-08-01T00:18:31;18.20;99.90
32749;DHT22;19119;52.474;13.710;2023-08-01T00:20:56;18.10;99.90
32749;DHT22;19119;52.474;13.710;2023-08-01T00:23:22;18.10;99.90
32749;DHT22;19119;52.474;13.710;2023-08-01T00:25:47;18.10;99.90
32749;DHT22;19119;52.474;13.710;2023-08-01T00:28:23;18.10;99.90
32749;DHT22;19119;52.474;13.710;2023-08-01T00:30:49;17.90;99.90
32749;DHT22;19119;52.474;13.710;2023-08-01T00:33:14;17.90;99.90
32749;DHT22;19119;52.474;13.710;2023-08-01T00:35:40;17.70;99.90
32749;DHT22;19119;52.474;13.710;2023-08-01T00:38:06;17.70;99.90
32749;DHT22;19119;52.474;13.710;2023-08-01T00:40:32;17.70;99.90
32749;DHT22;19119;52.474;13.710;2023-08-01T00:42:58;17.70;99.90
32749;DHT22;19119;52.474;13.710;2023-08-01T00:45:24;17.60;99.90
32749;DHT22;19119;52.474;13.710;2023-08-01T00:47:51;17.60;99.90
32749;DHT22;19119;52.474;13.710;2023-08-01T00:50:17;17.70;99.90
32749;DHT22;19119;52.474;13.710;2023-08-01T00:52:46;17.70;99.90
32749;DHT22;19119;52.474;13.710;2023-08-01T00:55:11;17.60;99.90
32749;DHT22;19119;52.474;13.710;2023-08-01T00:57:37;17.60;99.90
32749;DHT22;19119;52.474;13.710;2023-08-01T01:00:03;17.60;99.90
32749;DHT22;19119;52.474;13.710;2023-08-01T01:02:29;17.50;99.90
32749;DHT22;19119;52.474;13.710;2023-08-01T01:04:55;17.50;99.90
32749;DHT22;19119;52.474;13.710;2023-08-01T01:07:21;17.50;99.90
32749;DHT22;19119;52.474;13.710;2023-08-01T01:09:50;17.40;99.90
32749;DHT22;19119;52.474;13.710;2023-08-01T01:12:16;17.50;99.90
32749;DHT22;19119;52.474;13.710;2023-08-01T01:14:41;17.30;99.90
32749;DHT22;19119;52.474;13.710;2023-08-01T01:17:07;17.30;99.90
32749;DHT22;19119;52.474;13.710;2023-08-01T01:19:32;17.30;99.90
32749;DHT22;19119;52.474;13.710;2023-08-01T01:21:58;17.30;99.90
32749;DHT22;19119;52.474;13.710;2023-08-01T01:24:25;17.30;99.90
32749;DHT22;19119;52.474;13.710;2023-08-01T01:26:51;17.20;99.90
32749;DHT22;19119;52.474;13.710;2023-08-01T01:29:20;17.30;99.90
32749;DHT22;19119;52.474;13.710;2023-08-01T01:31:46;17.30;99.90
32749;DHT22;19119;52.474;13.710;2023-08-01T01:34:13;17.30;99.90
32749;DHT22;19119;52.474;13.710;2023-08-01T01:36:38;17.40;99.90
32749;DHT22;19119;52.474;13.710;2023-08-01T01:39:04;17.40;99.90
32749;DHT22;19119;52.474;13.710;2023-08-01T01:41:30;17.30;99.90
32749;DHT22;19119;52.474;13.710;2023-08-01T01:43:56;17.40;99.90
32749;DHT22;19119;52.474;13.710;2023-08-01T01:46:21;17.40;99.90
32749;DHT22;19119;52.474;13.710;2023-08-01T01:48:48;17.30;99.90
32749;DHT22;19119;52.474;13.710;2023-08-01T01:51:13;17.30;99.90
32749;DHT22;19119;52.474;13.710;2023-08-01T01:53:39;17.30;99.90
32749;DHT22;19119;52.474;13.710;2023-08-01T01:56:04;17.30;99.90
32749;DHT22;19119;52.474;13.710;2023-08-01T01:58:30;17.30;99.90
32749;DHT22;19119;52.474;13.710;2023-08-01T02:00:55;17.30;99.90
32749;DHT22;19119;52.474;13.710;2023-08-01T02:03:20;17.20;99.90
32749;DHT22;19119;52.474;13.710;2023-08-01T02:05:46;17.20;99.90
32749;DHT22;19119;52.474;13.710;2023-08-01T02:08:12;17.10;99.90
32749;DHT22;19119;52.474;13.710;2023-08-01T02:10:38;17.10;99.90
32749;DHT22;19119;52.474;13.710;2023-08-01T02:13:04;17.10;99.90
32749;DHT22;19119;52.474;13.710;2023-08-01T02:15:29;17.20;99.90
32749;DHT22;19119;52.474;13.710;2023-08-01T02:17:55;17.20;99.90
32749;DHT22;19119;52.474;13.710;2023-08-01T02:20:21;17.10;99.90
32749;DHT22;19119;52.474;13.710;2023-08-01T02:22:46;17.20;99.90
32749;DHT22;19119;52.474;13.710;2023-08-01T02:25:13;17.30;99.90
32749;DHT22;19119;52.474;13.710;2023-08-01T02:27:38;17.20;99.90
32749;DHT22;19119;52.474;13.710;2023-08-01T02:30:05;17.30;99.90
32749;DHT22;19119;52.474;13.710;2023-08-01T02:32:31;17.20;99.90
32749;DHT22;19119;52.474;13.710;2023-08-01T02:34:56;17.30;99.90
32749;DHT22;19119;52.474;13.710;2023-08-01T02:37:22;17.30;99.90
32749;DHT22;19119;52.474;13.710;2023-08-01T02:39:47;17.40;99.90
32749;DHT22;19119;52.474;13.710;2023-08-01T02:42:12;17.30;99.90
32749;DHT22;19119;52.474;13.710;2023-08-01T02:44:38;17.30;99.90
32749;DHT22;19119;52.474;13.710;2023-08-01T02:47:03;17.20;99.90
32749;DHT22;19119;52.474;13.710;2023-08-01T02:49:29;17.30;99.90
32749;DHT22;19119;52.474;13.710;2023-08-01T02:51:56;17.40;99.90
32749;DHT22;19119;52.474;13.710;2023-08-01T02:54:21;17.40;99.90
32749;DHT22;19119;52.474;13.710;2023-08-01T02:56:47;17.30;99.90
32749;DHT22;19119;52.474;13.710;2023-08-01T02:59:12;17.30;99.90
32749;DHT22;19119;52.474;13.710;2023-08-01T03:01:38;17.30;99.90
32749;DHT22;19119;52.474;13.710;2023-08-01T03:04:05;17.30;99.90
32749;DHT22;19119;52.474;13.710;2023-08-01T03:06:32;17.20;99.90
32749;DHT22;19119;52.474;13.710;2023-08-01T03:08:58;17.30;99.90
32749;DHT22;19119;52.474;13.710;2023-08-01T03:11:24;17.20;99.90
32749;DHT22;19119;52.474;13.710;2023-08-01T03:13:49;17.30;99.90
32749;DHT22;19119;52.474;13.710;2023-08-01T03:16:16;17.20;99.90
32749;DHT22;19119;52.474;13.710;2023-08-01T03:18:41;17.30;99.90
32749;DHT22;19119;52.474;13.710;2023-08-01T03:21:07;17.20;99.90
32749;DHT22;19119;52.474;13.710;2023-08-01T03:23:32;17.20;99.90
32749;DHT22;19119;52.474;13.710;2023-08-01T03:25:58;17.30;99.90
32749;DHT22;19119;52.474;13.710;2023-08-01T03:28:25;17.20;99.90
32749;DHT22;19119;52.474;13.710;2023-08-01T03:30:51;17.30;99.90
32749;DHT22;19119;52.474;13.710;2023-08-01T03:33:21;17.30;99.90
32749;DHT22;19119;52.474;13.710;2023-08-01T03:35:47;17.30;99.90
32749;DHT22;19119;52.474;13.710;2023-08-01T03:38:13;17.30;99.90
32749;DHT22;19119;52.474;13.710;2023-08-01T03:40:38;17.30;99.90
32749;DHT22;19119;52.474;13.710;2023-08-01T03:43:05;17.30;99.90
32749;DHT22;19119;52.474;13.710;2023-08-01T03:45:31;17.30;99.90
32749;DHT22;19119;52.474;13.710;2023-08-01T03:47:57;17.20;99.90
32749;DHT22;19119;52.474;13.710;2023-08-01T03:50:22;17.20;99.90
32749;DHT22;19119;52.474;13.710;2023-08-01T03:52:48;17.20;99.90
32749;DHT22;19119;52.474;13.710;2023-08-01T03:55:14;17.20;99.90
32749;DHT22;19119;52.474;13.710;2023-08-01T03:57:39;17.20;99.90
32749;DHT22;19119;52.474;13.710;2023-08-01T04:00:06;17.20;99.90
32749;DHT22;19119;52.474;13.710;2023-08-01T04:02:39;17.30;99.90
32749;DHT22;19119;52.474;13.710;2023-08-01T04:05:05;17.20;99.90
32749;DHT22;19119;52.474;13.710;2023-08-01T04:07:30;17.20;99.90
32749;DHT22;19119;52.474;13.710;2023-08-01T04:09:56;17.20;99.90
32749;DHT22;19119;52.474;13.710;2023-08-01T04:12:23;17.20;99.90
32749;DHT22;19119;52.474;13.710;2023-08-01T04:14:49;17.20;99.90
32749;DHT22;19119;52.474;13.710;2023-08-01T04:17:14;17.30;99.90
32749;DHT22;19119;52.474;13.710;2023-08-01T04:19:40;17.20;99.90
32749;DHT22;19119;52.474;13.710;2023-08-01T04:22:05;17.30;99.90
32749;DHT22;19119;52.474;13.710;2023-08-01T04:24:31;17.30;99.90
32749;DHT22;19119;52.474;13.710;2023-08-01T04:26:57;17.40;99.90
32749;DHT22;19119;52.474;13.710;2023-08-01T04:29:22;17.30;99.90
32749;DHT22;19119;52.474;13.710;2023-08-01T04:31:48;17.40;99.90
32749;DHT22;19119;52.474;13.710;2023-08-01T04:34:13;17.40;99.90
32749;DHT22;19119;52.474;13.710;2023-08-01T04:36:39;17.60;99.90
32749;DHT22;19119;52.474;13.710;2023-08-01T04:39:04;17.60;99.90
32749;DHT22;19119;52.474;13.710;2023-08-01T04:41:31;17.80;99.90
32749;DHT22;19119;52.474;13.710;2023-08-01T04:43:56;17.90;99.90
32749;DHT22;19119;52.474;13.710;2023-08-01T04:46:21;18.00;99.90
32749;DHT22;19119;52.474;13.710;2023-08-01T04:48:47;18.10;99.90
32749;DHT22;19119;52.474;13.710;2023-08-01T04:51:12;18.10;99.90
32749;DHT22;19119;52.474;13.710;2023-08-01T04:53:39;17.90;99.90
32749;DHT22;19119;52.474;13.710;2023-08-01T04:56:06;17.90;99.90
32749;DHT22;19119;52.474;13.710;2023-08-01T04:58:31;18.00;99.90
32749;DHT22;19119;52.474;13.710;2023-08-01T05:00:57;18.00;99.90
32749;DHT22;19119;52.474;13.710;2023-08-01T05:03:22;18.00;99.90
32749;DHT22;19119;52.474;13.710;2023-08-01T05:05:48;18.10;99.90
32749;DHT22;19119;52.474;13.710;2023-08-01T05:08:13;18.00;99.90
32749;DHT22;19119;52.474;13.710;2023-08-01T05:10:38;18.00;99.90
32749;DHT22;19119;52.474;13.710;2023-08-01T05:13:04;17.90;99.90
32749;DHT22;19119;52.474;13.710;2023-08-01T05:15:29;17.90;99.90
32749;DHT22;19119;52.474;13.710;2023-08-01T05:17:55;17.90;99.90
32749;DHT22;19119;52.474;13.710;2023-08-01T05:20:21;17.90;99.90
32749;DHT22;19119;52.474;13.710;2023-08-01T05:22:46;17.80;99.90
32749;DHT22;19119;52.474;13.710;2023-08-01T05:25:12;17.80;99.90
32749;DHT22;19119;52.474;13.710;2023-08-01T05:27:37;17.80;99.90
32749;DHT22;19119;52.474;13.710;2023-08-01T05:30:03;17.90;99.90
32749;DHT22;19119;52.474;13.710;2023-08-01T05:32:30;17.80;99.90
32749;DHT22;19119;52.474;13.710;2023-08-01T05:34:55;17.80;99.90
32749;DHT22;19119;52.474;13.710;2023-08-01T05:37:21;17.80;99.90
32749;DHT22;19119;52.474;13.710;2023-08-01T05:39:46;17.90;99.90
32749;DHT22;19119;52.474;13.710;2023-08-01T05:42:13;17.80;99.90
32749;DHT22;19119;52.474;13.710;2023-08-01T05:44:40;17.80;99.90
32749;DHT22;19119;52.474;13.710;2023-08-01T05:47:05;17.80;99.90
32749;DHT22;19119;52.474;13.710;2023-08-01T05:49:30;17.80;99.90
32749;DHT22;19119;52.474;13.710;2023-08-01T05:51:57;17.90;99.90
32749;DHT22;19119;52.474;13.710;2023-08-01T05:54:22;18.00;99.90
32749;DHT22;19119;52.474;13.710;2023-08-01T05:56:47;17.90;99.90
32749;DHT22;19119;52.474;13.710;2023-08-01T05:59:13;17.90;99.90
32749;DHT22;19119;52.474;13.710;2023-08-01T06:01:38;18.00;99.90
32749;DHT22;19119;52.474;13.710;2023-08-01T06:04:05;18.00;99.90
32749;DHT22;19119;52.474;13.710;2023-08-01T06:06:31;18.00;99.90
32749;DHT22;19119;52.474;13.710;2023-08-01T06:08:56;18.00;99.90
32749;DHT22;19119;52.474;13.710;2023-08-01T06:11:22;18.00;99.90
32749;DHT22;19119;52.474;13.710;2023-08-01T06:13:47;18.10;99.90
32749;DHT22;19119;52.474;13.710;2023-08-01T06:16:14;18.10;99.90
32749;DHT22;19119;52.474;13.710;2023-08-01T06:18:40;18.10;99.90
32749;DHT22;19119;52.474;13.710;2023-08-01T06:21:05;18.10;99.90
32749;DHT22;19119;52.474;13.710;2023-08-01T06:23:30;18.20;99.90
32749;DHT22;19119;52.474;13.710;2023-08-01T06:25:56;18.10;99.90
32749;DHT22;19119;52.474;13.710;2023-08-01T06:28:23;18.00;99.90
32749;DHT22;19119;52.474;13.710;2023-08-01T06:30:48;18.00;99.90
32749;DHT22;19119;52.474;13.710;2023-08-01T06:33:13;18.10;99.90
32749;DHT22;19119;52.474;13.710;2023-08-01T06:35:39;18.00;99.90
32749;DHT22;19119;52.474;13.710;2023-08-01T06:38:04;17.90;99.90
32749;DHT22;19119;52.474;13.710;2023-08-01T06:40:30;18.00;99.90
32749;DHT22;19119;52.474;13.710;2023-08-01T06:42:55;18.00;99.90
32749;DHT22;19119;52.474;13.710;2023-08-01T06:45:21;17.90;99.90
32749;DHT22;19119;52.474;13.710;2023-08-01T06:47:46;18.10;99.90
32749;DHT22;19119;52.474;13.710;2023-08-01T06:50:12;18.00;99.90
32749;DHT22;19119;52.474;13.710;2023-08-01T06:52:40;17.90;99.90
32749;DHT22;19119;52.474;13.710;2023-08-01T06:55:08;18.10;99.90
32749;DHT22;19119;52.474;13.710;2023-08-01T06:57:33;18.10;99.90
32749;DHT22;19119;52.474;13.710;2023-08-01T07:00:01;18.20;99.90
32749;DHT22;19119;52.474;13.710;2023-08-01T07:02:26;18.20;99.90
32749;DHT22;19119;52.474;13.710;2023-08-01T07:04:52;18.20;99.90
32749;DHT22;19119;52.474;13.710;2023-08-01T07:07:17;18.20;99.90
32749;DHT22;19119;52.474;13.710;2023-08-01T07:09:43;18.20;99.90
32749;DHT22;19119;52.474;13.710;2023-08-01T07:12:09;18.30;99.90
32749;DHT22;19119;52.474;13.710;2023-08-01T07:14:35;18.30;99.90
32749;DHT22;19119;52.474;13.710;2023-08-01T07:17:01;18.30;99.90
32749;DHT22;19119;52.474;13.710;2023-08-01T07:19:26;18.20;99.90
32749;DHT22;19119;52.474;13.710;2023-08-01T07:21:52;18.30;99.90
32749;DHT22;19119;52.474;13.710;2023-08-01T07:24:17;18.30;99.90
32749;DHT22;19119;52.474;13.710;2023-08-01T07:26:43;18.30;99.90
32749;DHT22;19119;52.474;13.710;2023-08-01T07:29:08;18.20;99.90
32749;DHT22;19119;52.474;13.710;2023-08-01T07:31:35;18.30;99.90
32749;DHT22;19119;52.474;13.710;2023-08-01T07:34:01;18.20;99.90
32749;DHT22;19119;52.474;13.710;2023-08-01T07:36:27;18.20;99.90
32749;DHT22;19119;52.474;13.710;2023-08-01T07:38:53;18.20;99.90
32749;DHT22;19119;52.474;13.710;2023-08-01T07:41:20;18.10;99.90
32749;DHT22;19119;52.474;13.710;2023-08-01T07:43:45;18.20;99.90
32749;DHT22;19119;52.474;13.710;2023-08-01T07:46:11;18.30;99.90
32749;DHT22;19119;52.474;13.710;2023-08-01T07:48:37;18.40;99.90
32749;DHT22;19119;52.474;13.710;2023-08-01T07:51:03;18.50;99.90
32749;DHT22;19119;52.474;13.710;2023-08-01T07:53:31;18.50;99.90
32749;DHT22;19119;52.474;13.710;2023-08-01T07:55:57;18.50;99.90
32749;DHT22;19119;52.474;13.710;2023-08-01T07:58:23;18.70;99.90
32749;DHT22;19119;52.474;13.710;2023-08-01T08:00:48;18.70;99.90
32749;DHT22;19119;52.474;13.710;2023-08-01T08:03:14;18.70;99.90
32749;DHT22;19119;52.474;13.710;2023-08-01T08:05:39;18.90;99.90
32749;DHT22;19119;52.474;13.710;2023-08-01T08:08:06;18.90;99.90
32749;DHT22;19119;52.474;13.710;2023-08-01T08:10:33;18.90;99.90
32749;DHT22;19119;52.474;13.710;2023-08-01T08:12:58;19.00;99.90
32749;DHT22;19119;52.474;13.710;2023-08-01T08:15:24;19.00;99.90
32749;DHT22;19119;52.474;13.710;2023-08-01T08:17:51;19.30;99.90
32749;DHT22;19119;52.474;13.710;2023-08-01T08:20:16;19.30;99.90
32749;DHT22;19119;52.474;13.710;2023-08-01T08:22:42;19.30;99.90
32749;DHT22;19119;52.474;13.710;2023-08-01T08:25:07;19.20;99.90
32749;DHT22;19119;52.474;13.710;2023-08-01T08:27:34;19.20;99.90
32749;DHT22;19119;52.474;13.710;2023-08-01T08:29:59;19.30;99.90
32749;DHT22;19119;52.474;13.710;2023-08-01T08:32:27;19.40;99.90
32749;DHT22;19119;52.474;13.710;2023-08-01T08:34:52;19.40;99.90
32749;DHT22;19119;52.474;13.710;2023-08-01T08:37:18;19.50;99.90
32749;DHT22;19119;52.474;13.710;2023-08-01T08:39:43;19.50;99.90
32749;DHT22;19119;52.474;13.710;2023-08-01T08:42:10;19.60;99.90
32749;DHT22;19119;52.474;13.710;2023-08-01T08:44:43;19.60;99.90
32749;DHT22;19119;52.474;13.710;2023-08-01T08:47:11;19.60;99.90
32749;DHT22;19119;52.474;13.710;2023-08-01T08:49:39;19.50;99.90
32749;DHT22;19119;52.474;13.710;2023-08-01T08:52:06;19.70;99.90
32749;DHT22;19119;52.474;13.710;2023-08-01T08:54:31;19.90;99.90
32749;DHT22;19119;52.474;13.710;2023-08-01T08:56:58;20.20;99.90
32749;DHT22;19119;52.474;13.710;2023-08-01T08:59:25;20.30;99.90
32749;DHT22;19119;52.474;13.710;2023-08-01T09:01:52;20.40;99.90
32749;DHT22;19119;52.474;13.710;2023-08-01T09:04:17;20.70;99.90
32749;DHT22;19119;52.474;13.710;2023-08-01T09:06:49;20.70;99.90
32749;DHT22;19119;52.474;13.710;2023-08-01T09:09:15;20.70;99.90
32749;DHT22;19119;52.474;13.710;2023-08-01T09:11:44;20.90;99.90
32749;DHT22;19119;52.474;13.710;2023-08-01T09:14:11;20.70;99.90
32749;DHT22;19119;52.474;13.710;2023-08-01T09:16:37;20.80;99.90
32749;DHT22;19119;52.474;13.710;2023-08-01T09:19:05;20.90;99.90
32749;DHT22;19119;52.474;13.710;2023-08-01T09:21:35;20.90;99.90
32749;DHT22;19119;52.474;13.710;2023-08-01T09:24:13;20.80;99.90
32749;DHT22;19119;52.474;13.710;2023-08-01T09:26:40;20.70;99.90
32749;DHT22;19119;52.474;13.710;2023-08-01T09:29:06;20.90;99.90
32749;DHT22;19119;52.474;13.710;2023-08-01T09:31:39;21.10;99.90
32749;DHT22;19119;52.474;13.710;2023-08-01T09:34:18;21.40;99.90
32749;DHT22;19119;52.474;13.710;2023-08-01T09:36:44;21.60;99.90
32749;DHT22;19119;52.474;13.710;2023-08-01T09:39:18;21.50;99.90
32749;DHT22;19119;52.474;13.710;2023-08-01T09:41:45;21.50;99.90
32749;DHT22;19119;52.474;13.710;2023-08-01T09:44:11;21.40;99.90
32749;DHT22;19119;52.474;13.710;2023-08-01T09:46:37;21.70;99.90
32749;DHT22;19119;52.474;13.710;2023-08-01T09:49:07;22.10;99.90
32749;DHT22;19119;52.474;13.710;2023-08-01T09:51:33;22.60;99.90
32749;DHT22;19119;52.474;13.710;2023-08-01T09:53:58;23.20;99.90
32749;DHT22;19119;52.474;13.710;2023-08-01T09:56:26;23.00;99.90
32749;DHT22;19119;52.474;13.710;2023-08-01T09:58:54;22.70;99.90
32749;DHT22;19119;52.474;13.710;2023-08-01T10:01:24;22.50;99.90
32749;DHT22;19119;52.474;13.710;2023-08-01T10:03:53;22.00;99.90
32749;DHT22;19119;52.474;13.710;2023-08-01T10:06:21;21.90;99.90
32749;DHT22;19119;52.474;13.710;2023-08-01T10:08:48;21.80;99.90
32749;DHT22;19119;52.474;13.710;2023-08-01T10:11:17;21.50;99.90
32749;DHT22;19119;52.474;13.710;2023-08-01T10:13:43;21.20;99.90
32749;DHT22;19119;52.474;13.710;2023-08-01T10:16:09;20.90;99.90
32749;DHT22;19119;52.474;13.710;2023-08-01T10:18:38;20.80;99.90
32749;DHT22;19119;52.474;13.710;2023-08-01T10:21:08;20.50;99.90
32749;DHT22;19119;52.474;13.710;2023-08-01T10:23:36;20.60;99.90
32749;DHT22;19119;52.474;13.710;2023-08-01T10:26:05;20.80;99.90
32749;DHT22;19119;52.474;13.710;2023-08-01T10:28:32;21.00;99.90
32749;DHT22;19119;52.474;13.710;2023-08-01T10:31:15;21.10;99.90
32749;DHT22;19119;52.474;13.710;2023-08-01T10:33:43;21.30;99.90
32749;DHT22;19119;52.474;13.710;2023-08-01T10:36:22;21.40;99.90
32749;DHT22;19119;52.474;13.710;2023-08-01T10:38:52;21.20;99.90
32749;DHT22;19119;52.474;13.710;2023-08-01T10:41:19;20.90;99.90
32749;DHT22;19119;52.474;13.710;2023-08-01T10:43:45;20.90;99.90
32749;DHT22;19119;52.474;13.710;2023-08-01T10:46:11;21.00;99.90
32749;DHT22;19119;52.474;13.710;2023-08-01T10:48:51;21.30;99.90
32749;DHT22;19119;52.474;13.710;2023-08-01T10:51:16;21.30;99.90
32749;DHT22;19119;52.474;13.710;2023-08-01T10:53:42;21.20;99.90
32749;DHT22;19119;52.474;13.710;2023-08-01T10:56:07;21.30;99.90
32749;DHT22;19119;52.474;13.710;2023-08-01T10:58:34;21.40;99.90
32749;DHT22;19119;52.474;13.710;2023-08-01T11:01:00;21.30;99.90
32749;DHT22;19119;52.474;13.710;2023-08-01T11:03:39;21.30;99.90
32749;DHT22;19119;52.474;13.710;2023-08-01T11:06:05;21.40;99.90
32749;DHT22;19119;52.474;13.710;2023-08-01T11:08:39;21.50;99.90
32749;DHT22;19119;52.474;13.710;2023-08-01T11:11:12;21.60;99.90
32749;DHT22;19119;52.474;13.710;2023-08-01T11:13:38;21.40;99.90
32749;DHT22;19119;52.474;13.710;2023-08-01T11:16:04;21.30;99.90
32749;DHT22;19119;52.474;13.710;2023-08-01T11:18:43;21.30;99.90
32749;DHT22;19119;52.474;13.710;2023-08-01T11:21:09;21.20;99.90
32749;DHT22;19119;52.474;13.710;2023-08-01T11:23:34;21.10;99.90
32749;DHT22;19119;52.474;13.710;2023-08-01T11:26:07;20.70;99.90
32749;DHT22;19119;52.474;13.710;2023-08-01T11:28:33;20.50;99.90
32749;DHT22;19119;52.474;13.710;2023-08-01T11:30:59;20.20;99.90
32749;DHT22;19119;52.474;13.710;2023-08-01T11:33:26;19.90;99.90
32749;DHT22;19119;52.474;13.710;2023-08-01T11:35:55;19.80;99.90
32749;DHT22;19119;52.474;13.710;2023-08-01T11:38:29;19.60;99.90
32749;DHT22;19119;52.474;13.710;2023-08-01T11:40:59;19.50;99.90
32749;DHT22;19119;52.474;13.710;2023-08-01T11:43:25;19.50;99.90
32749;DHT22;19119;52.474;13.710;2023-08-01T11:45:56;19.60;99.90
32749;DHT22;19119;52.474;13.710;2023-08-01T11:48:22;19.60;99.90
32749;DHT22;19119;52.474;13.710;2023-08-01T11:50:48;19.70;99.90
32749;DHT22;19119;52.474;13.710;2023-08-01T11:53:21;19.60;99.90
32749;DHT22;19119;52.474;13.710;2023-08-01T11:55:48;19.70;99.90
32749;DHT22;19119;52.474;13.710;2023-08-01T11:58:14;19.80;99.90
32749;DHT22;19119;52.474;13.710;2023-08-01T12:00:40;19.70;99.90
32749;DHT22;19119;52.474;13.710;2023-08-01T12:03:10;19.70;99.90
32749;DHT22;19119;52.474;13.710;2023-08-01T12:05:41;19.60;99.90
32749;DHT22;19119;52.474;13.710;2023-08-01T12:08:12;19.70;99.90
32749;DHT22;19119;52.474;13.710;2023-08-01T12:10:39;19.80;99.90
32749;DHT22;19119;52.474;13.710;2023-08-01T12:13:06;19.90;99.90
32749;DHT22;19119;52.474;13.710;2023-08-01T12:15:31;19.80;99.90
32749;DHT22;19119;52.474;13.710;2023-08-01T12:17:57;19.80;99.90
32749;DHT22;19119;52.474;13.710;2023-08-01T12:20:22;19.90;99.90
32749;DHT22;19119;52.474;13.710;2023-08-01T12:22:48;19.90;99.90
32749;DHT22;19119;52.474;13.710;2023-08-01T12:25:13;20.20;99.90
32749;DHT22;19119;52.474;13.710;2023-08-01T12:27:39;20.40;99.90
32749;DHT22;19119;52.474;13.710;2023-08-01T12:30:05;20.40;99.90
32749;DHT22;19119;52.474;13.710;2023-08-01T12:32:30;20.70;99.90
32749;DHT22;19119;52.474;13.710;2023-08-01T12:34:56;21.00;99.90
32749;DHT22;19119;52.474;13.710;2023-08-01T12:37:21;21.30;99.90
32749;DHT22;19119;52.474;13.710;2023-08-01T12:39:47;21.50;99.90
32749;DHT22;19119;52.474;13.710;2023-08-01T12:42:14;21.50;99.90
32749;DHT22;19119;52.474;13.710;2023-08-01T12:44:39;21.60;99.90
32749;DHT22;19119;52.474;13.710;2023-08-01T12:47:05;22.10;99.90
32749;DHT22;19119;52.474;13.710;2023-08-01T12:49:34;22.20;99.90
32749;DHT22;19119;52.474;13.710;2023-08-01T12:52:02;22.30;99.90
32749;DHT22;19119;52.474;13.710;2023-08-01T12:54:28;22.30;99.90
32749;DHT22;19119;52.474;13.710;2023-08-01T12:56:53;22.30;99.90
32749;DHT22;19119;52.474;13.710;2023-08-01T12:59:20;22.20;99.90
32749;DHT22;19119;52.474;13.710;2023-08-01T13:01:45;22.20;99.90
32749;DHT22;19119;52.474;13.710;2023-08-01T13:04:11;21.90;99.90
32749;DHT22;19119;52.474;13.710;2023-08-01T13:06:37;22.10;99.90
32749;DHT22;19119;52.474;13.710;2023-08-01T13:09:03;22.40;99.90
32749;DHT22;19119;52.474;13.710;2023-08-01T13:11:28;22.40;99.90
32749;DHT22;19119;52.474;13.710;2023-08-01T13:13:54;22.60;99.90
32749;DHT22;19119;52.474;13.710;2023-08-01T13:16:20;22.70;99.90
32749;DHT22;19119;52.474;13.710;2023-08-01T13:18:46;22.50;99.90
32749;DHT22;19119;52.474;13.710;2023-08-01T13:21:13;22.50;99.90
32749;DHT22;19119;52.474;13.710;2023-08-01T13:23:39;22.60;99.90
32749;DHT22;19119;52.474;13.710;2023-08-01T13:26:04;22.80;99.90
32749;DHT22;19119;52.474;13.710;2023-08-01T13:28:30;23.30;99.90
32749;DHT22;19119;52.474;13.710;2023-08-01T13:30:56;23.10;99.90
32749;DHT22;19119;52.474;13.710;2023-08-01T13:33:21;23.30;99.90
32749;DHT22;19119;52.474;13.710;2023-08-01T13:35:51;23.10;99.90
32749;DHT22;19119;52.474;13.710;2023-08-01T13:38:16;23.40;99.90
32749;DHT22;19119;52.474;13.710;2023-08-01T13:40:42;23.50;99.90
32749;DHT22;19119;52.474;13.710;2023-08-01T13:43:09;23.60;99.90
32749;DHT22;19119;52.474;13.710;2023-08-01T13:45:35;23.30;99.90
32749;DHT22;19119;52.474;13.710;2023-08-01T13:48:00;23.30;99.90
32749;DHT22;19119;52.474;13.710;2023-08-01T13:50:28;23.20;99.90
32749;DHT22;19119;52.474;13.710;2023-08-01T13:52:54;23.30;99.90
32749;DHT22;19119;52.474;13.710;2023-08-01T13:55:19;23.50;99.90
32749;DHT22;19119;52.474;13.710;2023-08-01T13:57:45;23.20;99.90
32749;DHT22;19119;52.474;13.710;2023-08-01T14:00:11;23.30;99.90
32749;DHT22;19119;52.474;13.710;2023-08-01T14:02:37;23.10;99.90
32749;DHT22;19119;52.474;13.710;2023-08-01T14:05:02;23.30;99.90
32749;DHT22;19119;52.474;13.710;2023-08-01T14:07:28;23.40;99.90
32749;DHT22;19119;52.474;13.710;2023-08-01T14:09:53;23.40;99.90
32749;DHT22;19119;52.474;13.710;2023-08-01T14:12:18;23.50;99.90
32749;DHT22;19119;52.474;13.710;2023-08-01T14:14:44;23.30;99.90
32749;DHT22;19119;52.474;13.710;2023-08-01T14:17:10;23.40;99.90
32749;DHT22;19119;52.474;13.710;2023-08-01T14:19:54;23.60;99.90
32749;DHT22;19119;52.474;13.710;2023-08-01T14:22:21;23.50;99.90
32749;DHT22;19119;52.474;13.710;2023-08-01T14:24:47;23.50;99.90
32749;DHT22;19119;52.474;13.710;2023-08-01T14:27:14;23.10;99.90
32749;DHT22;19119;52.474;13.710;2023-08-01T14:29:39;23.50;99.90
32749;DHT22;19119;52.474;13.710;2023-08-01T14:32:06;24.10;99.90
32749;DHT22;19119;52.474;13.710;2023-08-01T14:34:31;24.40;99.90
32749;DHT22;19119;52.474;13.710;2023-08-01T14:36:57;24.50;99.90
32749;DHT22;19119;52.474;13.710;2023-08-01T14:39:23;24.20;99.90
32749;DHT22;19119;52.474;13.710;2023-08-01T14:41:48;24.10;99.90
32749;DHT22;19119;52.474;13.710;2023-08-01T14:44:14;24.00;99.90
32749;DHT22;19119;52.474;13.710;2023-08-01T14:46:39;23.50;99.90
32749;DHT22;19119;52.474;13.710;2023-08-01T14:49:05;23.50;99.90
32749;DHT22;19119;52.474;13.710;2023-08-01T14:51:30;23.90;99.90
32749;DHT22;19119;52.474;13.710;2023-08-01T14:53:56;24.00;99.90
32749;DHT22;19119;52.474;13.710;2023-08-01T14:56:21;24.10;99.90
32749;DHT22;19119;52.474;13.710;2023-08-01T14:58:49;24.10;99.90
32749;DHT22;19119;52.474;13.710;2023-08-01T15:01:14;24.20;99.90
32749;DHT22;19119;52.474;13.710;2023-08-01T15:03:40;24.30;99.90
32749;DHT22;19119;52.474;13.710;2023-08-01T15:06:07;24.60;99.90
32749;DHT22;19119;52.474;13.710;2023-08-01T15:08:33;24.60;99.90
32749;DHT22;19119;52.474;13.710;2023-08-01T15:11:03;24.70;99.90